createdAt,value
2018-12-05T00:02:10.532Z,2.47
2018-12-05T00:04:46.162Z,2.77
2018-12-05T00:07:22.162Z,2.77
2018-12-05T00:09:57.750Z,3.00
2018-12-05T00:12:36.943Z,2.90
2018-12-05T00:15:13.731Z,3.17
2018-12-05T00:17:53.250Z,3.00
2018-12-05T00:20:26.942Z,3.40
2018-12-05T00:22:59.779Z,3.63
2018-12-05T00:25:37.332Z,6.27
2018-12-05T00:28:10.067Z,5.43
2018-12-05T00:30:44.998Z,7.43
2018-12-05T00:33:20.377Z,13.13
2018-12-05T00:35:54.972Z,9.60
2018-12-05T00:38:28.021Z,12.00
2018-12-05T00:41:02.300Z,15.53
2018-12-05T00:43:45.361Z,14.77
2018-12-05T00:46:21.298Z,15.40
2018-12-05T00:48:56.228Z,14.40
2018-12-05T00:51:31.210Z,11.80
2018-12-05T00:54:04.478Z,11.93
2018-12-05T00:56:36.892Z,10.50
2018-12-05T00:59:09.725Z,6.70
2018-12-05T01:01:44.797Z,7.13
2018-12-05T01:04:18.868Z,7.10
2018-12-05T01:06:55.158Z,6.30
2018-12-05T01:09:31.222Z,6.27
2018-12-05T01:12:06.085Z,6.27
2018-12-05T01:14:41.196Z,6.60
2018-12-05T01:17:16.018Z,6.70
2018-12-05T01:19:51.957Z,6.13
2018-12-05T01:22:25.394Z,6.77
2018-12-05T01:25:00.242Z,7.00
2018-12-05T01:27:34.450Z,7.23
2018-12-05T01:30:19.554Z,8.00
2018-12-05T01:32:51.503Z,6.33
2018-12-05T01:35:20.255Z,6.63
2018-12-05T01:37:54.823Z,6.63
2018-12-05T01:43:17.198Z,6.57
2018-12-05T01:45:57.028Z,6.97
2018-12-05T01:48:26.464Z,6.70
2018-12-05T01:50:55.694Z,6.70
2018-12-05T01:53:30.843Z,7.00
2018-12-05T01:56:00.927Z,8.23
2018-12-05T01:58:44.528Z,8.37
2018-12-05T02:01:17.676Z,9.10
2018-12-05T02:03:57.422Z,8.47
2018-12-05T02:06:30.383Z,9.13
2018-12-05T02:09:06.545Z,8.87
2018-12-05T02:11:41.436Z,7.77
2018-12-05T02:14:18.561Z,7.27
2018-12-05T02:16:48.368Z,6.83
2018-12-05T02:19:23.054Z,7.57
2018-12-05T02:21:57.837Z,8.93
2018-12-05T02:24:38.587Z,9.27
2018-12-05T02:27:07.680Z,8.93
2018-12-05T02:29:43.531Z,9.00
2018-12-05T02:32:15.231Z,8.23
2018-12-05T02:34:50.672Z,9.20
2018-12-05T02:37:26.278Z,9.77
2018-12-05T02:40:00.351Z,7.83
2018-12-05T02:42:35.348Z,9.03
2018-12-05T02:45:12.771Z,9.67
2018-12-05T02:50:50.190Z,10.10
2018-12-05T02:53:35.399Z,11.00
2018-12-05T02:56:07.586Z,10.70
2018-12-05T02:58:40.238Z,11.20
2018-12-05T03:01:19.948Z,10.77
2018-12-05T03:03:53.331Z,10.60
2018-12-05T03:06:29.517Z,11.33
2018-12-05T03:09:05.127Z,11.10
2018-12-05T03:11:40.820Z,10.87
2018-12-05T03:14:24.622Z,10.33
2018-12-05T03:17:01.289Z,10.37
2018-12-05T03:19:30.436Z,10.03
2018-12-05T03:22:11.653Z,9.50
2018-12-05T03:24:46.952Z,9.57
2018-12-05T03:27:20.204Z,9.67
2018-12-05T03:29:54.192Z,10.27
2018-12-05T03:32:35.442Z,8.63
2018-12-05T03:35:14.341Z,8.27
2018-12-05T03:37:50.071Z,7.03
2018-12-05T03:40:30.206Z,7.30
2018-12-05T03:43:05.020Z,7.70
2018-12-05T03:45:40.001Z,7.50
2018-12-05T03:48:22.858Z,8.10
2018-12-05T03:50:57.602Z,7.77
2018-12-05T03:53:32.369Z,8.43
2018-12-05T03:56:07.234Z,7.90
2018-12-05T03:58:48.356Z,7.67
2018-12-05T04:01:26.099Z,8.57
2018-12-05T04:04:03.469Z,7.53
2018-12-05T04:06:45.252Z,8.80
2018-12-05T04:12:08.122Z,8.13
2018-12-05T04:14:38.032Z,8.60
2018-12-05T04:17:15.141Z,9.57
2018-12-05T04:19:50.387Z,9.73
2018-12-05T04:22:23.097Z,9.80
2018-12-05T04:24:57.842Z,9.70
2018-12-05T04:27:32.505Z,8.40
2018-12-05T04:30:07.643Z,10.40
2018-12-05T04:32:39.711Z,11.23
2018-12-05T04:35:12.515Z,9.70
2018-12-05T04:37:54.551Z,10.00
2018-12-05T04:40:30.715Z,9.60
2018-12-05T04:42:59.853Z,9.53
2018-12-05T04:45:29.074Z,9.93
2018-12-05T04:48:03.549Z,9.73
2018-12-05T04:50:40.023Z,9.80
2018-12-05T04:53:15.336Z,9.53
2018-12-05T04:55:50.167Z,10.20
2018-12-05T04:58:28.132Z,9.10
2018-12-05T05:01:08.580Z,8.30
2018-12-05T05:03:38.659Z,8.53
2018-12-05T05:06:10.927Z,9.87
2018-12-05T05:08:45.330Z,9.23
2018-12-05T05:11:21.037Z,8.83
2018-12-05T05:13:55.872Z,8.63
2018-12-05T05:16:31.221Z,8.47
2018-12-05T05:19:04.865Z,8.10
2018-12-05T05:24:27.090Z,9.13
2018-12-05T05:27:05.221Z,8.80
2018-12-05T05:29:39.722Z,8.73
2018-12-05T05:32:12.104Z,11.27
2018-12-05T05:34:53.020Z,11.20
2018-12-05T05:40:27.960Z,12.43
2018-12-05T05:43:06.570Z,12.27
2018-12-05T05:45:43.714Z,13.50
2018-12-05T05:48:22.158Z,12.73
2018-12-05T05:50:57.931Z,13.70
2018-12-05T05:53:28.648Z,12.30
2018-12-05T05:56:13.309Z,12.00
2018-12-05T05:58:48.332Z,13.07
2018-12-05T06:01:27.746Z,13.53
2018-12-05T06:04:06.177Z,12.67
2018-12-05T06:06:49.110Z,12.87
2018-12-05T06:09:25.167Z,11.83
2018-12-05T06:12:06.601Z,11.73
2018-12-05T06:14:50.301Z,9.57
2018-12-05T06:17:25.417Z,10.23
2018-12-05T06:20:04.769Z,9.20
2018-12-05T06:22:47.791Z,9.07
2018-12-05T06:25:21.433Z,11.50
2018-12-05T06:27:57.100Z,10.33
2018-12-05T06:30:38.343Z,9.83
2018-12-05T06:33:22.254Z,10.10
2018-12-05T06:35:58.365Z,10.33
2018-12-05T06:38:33.072Z,11.37
2018-12-05T06:41:07.488Z,10.00
2018-12-05T06:43:55.583Z,10.07
2018-12-05T06:46:33.996Z,9.73
2018-12-05T06:49:08.995Z,21.80
2018-12-05T06:51:45.575Z,9.57
2018-12-05T06:54:25.491Z,9.97
2018-12-05T06:56:58.755Z,10.00
2018-12-05T06:59:39.457Z,9.63
2018-12-05T07:02:15.503Z,9.30
2018-12-05T07:04:54.599Z,9.30
2018-12-05T07:07:29.233Z,9.63
2018-12-05T07:12:50.701Z,9.10
2018-12-05T07:15:26.549Z,11.30
2018-12-05T07:18:01.968Z,11.50
2018-12-05T07:20:37.159Z,10.73
2018-12-05T07:23:12.989Z,10.70
2018-12-05T07:25:49.794Z,10.80
2018-12-05T07:28:32.986Z,11.50
2018-12-05T07:31:11.674Z,12.33
2018-12-05T07:33:48.350Z,11.33
2018-12-05T07:36:23.672Z,10.73
2018-12-05T07:39:04.694Z,10.57
2018-12-05T07:41:41.155Z,11.17
2018-12-05T07:44:19.314Z,11.67
2018-12-05T07:47:04.993Z,11.60
2018-12-05T07:49:46.015Z,12.03
2018-12-05T07:52:20.672Z,11.73
2018-12-05T07:54:56.030Z,12.40
2018-12-05T07:57:30.682Z,12.53
2018-12-05T08:02:58.383Z,12.30
2018-12-05T08:05:33.483Z,12.10
2018-12-05T08:08:06.193Z,10.77
2018-12-05T08:10:41.250Z,12.13
2018-12-05T08:15:56.160Z,11.53
2018-12-05T08:18:30.577Z,12.80
2018-12-05T08:21:04.762Z,11.37
2018-12-05T08:23:39.132Z,10.80
2018-12-05T08:26:14.016Z,12.10
2018-12-05T08:28:53.199Z,11.30
2018-12-05T08:31:37.702Z,11.33
2018-12-05T08:37:06.124Z,11.63
2018-12-05T08:39:38.129Z,11.60
2018-12-05T08:42:10.241Z,11.37
2018-12-05T08:44:44.734Z,11.50
2018-12-05T08:47:27.107Z,12.30
2018-12-05T08:50:02.334Z,11.63
2018-12-05T08:52:32.708Z,12.03
2018-12-05T08:55:07.562Z,11.20
2018-12-05T08:57:44.244Z,12.13
2018-12-05T09:00:22.098Z,11.67
2018-12-05T09:02:58.316Z,11.33
2018-12-05T09:05:28.062Z,10.90
2018-12-05T09:08:08.907Z,10.87
2018-12-05T09:10:45.154Z,11.93
2018-12-05T09:13:20.693Z,11.10
2018-12-05T09:15:55.651Z,11.77
2018-12-05T09:18:40.524Z,11.50
2018-12-05T09:21:22.041Z,10.87
2018-12-05T09:23:57.843Z,11.70
2018-12-05T09:26:35.059Z,11.67
2018-12-05T09:29:08.593Z,10.17
2018-12-05T09:31:47.355Z,10.50
2018-12-05T09:34:23.605Z,11.43
2018-12-05T09:39:51.354Z,12.67
2018-12-05T09:42:27.409Z,11.57
2018-12-05T09:45:08.525Z,12.37
2018-12-05T09:47:46.880Z,11.33
2018-12-05T09:50:21.573Z,11.17
2018-12-05T09:56:08.890Z,11.03
2018-12-05T09:58:49.969Z,12.40
2018-12-05T10:01:24.876Z,11.53
2018-12-05T10:04:00.471Z,11.73
2018-12-05T10:06:32.771Z,11.53
2018-12-05T10:09:08.303Z,12.07
2018-12-05T10:11:43.374Z,12.07
2018-12-05T10:14:18.308Z,12.33
2018-12-05T10:16:54.700Z,12.53
2018-12-05T10:19:31.459Z,12.30
2018-12-05T10:24:57.698Z,11.97
2018-12-05T10:27:37.068Z,13.07
2018-12-05T10:30:12.081Z,11.77
2018-12-05T10:32:46.672Z,12.57
2018-12-05T10:35:22.035Z,11.97
2018-12-05T10:37:55.743Z,11.70
2018-12-05T10:40:30.755Z,11.33
2018-12-05T10:43:05.737Z,11.37
2018-12-05T10:45:42.635Z,10.93
2018-12-05T10:48:15.583Z,9.90
2018-12-05T10:50:51.118Z,9.80
2018-12-05T10:53:26.203Z,9.63
2018-12-05T10:55:58.516Z,10.90
2018-12-05T10:58:35.033Z,11.17
2018-12-05T11:01:18.640Z,11.43
2018-12-05T11:03:53.075Z,11.80
2018-12-05T11:09:13.033Z,14.47
2018-12-05T11:11:53.397Z,12.87
2018-12-05T11:14:34.253Z,20.47
2018-12-05T11:17:16.811Z,13.50
2018-12-05T11:19:56.998Z,10.87
2018-12-05T11:25:41.252Z,11.60
2018-12-05T11:28:18.079Z,11.60
2018-12-05T11:30:54.746Z,11.57
2018-12-05T11:39:11.469Z,10.70
2018-12-05T11:41:58.962Z,11.87
2018-12-05T11:44:34.676Z,11.53
2018-12-05T11:47:12.865Z,12.47
2018-12-05T11:49:48.197Z,12.07
2018-12-05T11:52:23.183Z,11.00
2018-12-05T11:54:59.882Z,12.23
2018-12-05T11:57:34.830Z,11.10
2018-12-05T12:00:09.672Z,12.43
2018-12-05T12:02:44.614Z,11.17
2018-12-05T12:05:22.715Z,10.87
2018-12-05T12:08:01.850Z,12.60
2018-12-05T12:10:44.132Z,11.43
2018-12-05T12:13:24.266Z,11.17
2018-12-05T12:15:59.398Z,11.40
2018-12-05T12:18:39.702Z,11.93
2018-12-05T12:21:14.636Z,12.30
2018-12-05T12:23:49.769Z,12.60
2018-12-05T12:26:33.328Z,13.17
2018-12-05T12:29:11.247Z,13.20
2018-12-05T12:31:46.796Z,13.63
2018-12-05T12:34:25.814Z,13.33
2018-12-05T12:37:04.586Z,12.00
2018-12-05T12:39:39.581Z,12.27
2018-12-05T12:42:14.463Z,11.87
2018-12-05T12:44:49.694Z,11.53
2018-12-05T12:47:32.975Z,11.83
2018-12-05T12:50:09.654Z,12.40
2018-12-05T12:52:39.382Z,11.97
2018-12-05T12:55:09.193Z,11.53
2018-12-05T12:57:41.652Z,9.97
2018-12-05T13:00:16.039Z,9.67
2018-12-05T13:02:51.023Z,8.80
2018-12-05T13:05:29.731Z,9.10
2018-12-05T13:08:04.555Z,7.80
2018-12-05T13:10:37.741Z,7.27
2018-12-05T13:13:13.541Z,6.90
2018-12-05T13:15:56.605Z,7.10
2018-12-05T13:18:32.919Z,6.60
2018-12-05T13:21:03.737Z,6.57
2018-12-05T13:23:39.182Z,7.57
2018-12-05T13:26:13.874Z,6.93
2018-12-05T13:28:48.833Z,6.87
2018-12-05T13:31:22.568Z,7.10
2018-12-05T13:34:05.877Z,7.23
2018-12-05T13:36:41.556Z,7.40
2018-12-05T13:39:17.589Z,8.43
2018-12-05T13:41:51.782Z,7.87
2018-12-05T13:44:28.930Z,8.80
2018-12-05T13:47:08.011Z,8.37
2018-12-05T13:49:45.243Z,9.53
2018-12-05T13:52:24.672Z,9.67
2018-12-05T13:55:07.350Z,10.00
2018-12-05T13:57:42.677Z,10.97
2018-12-05T14:03:23.952Z,11.47
2018-12-05T14:05:58.610Z,11.37
2018-12-05T14:08:34.687Z,11.73
2018-12-05T14:11:09.074Z,12.00
2018-12-05T14:13:47.843Z,11.97
2018-12-05T14:16:22.780Z,11.97
2018-12-05T14:19:06.164Z,13.10
2018-12-05T14:21:41.432Z,14.30
2018-12-05T14:24:27.447Z,11.83
2018-12-05T14:27:02.643Z,12.33
2018-12-05T14:29:31.718Z,12.10
2018-12-05T14:32:18.217Z,12.10
2018-12-05T14:34:50.597Z,11.63
2018-12-05T14:37:27.994Z,12.90
2018-12-05T14:39:59.673Z,11.47
2018-12-05T14:42:36.282Z,11.90
2018-12-05T14:45:10.997Z,14.57
2018-12-05T14:47:43.079Z,11.77
2018-12-05T14:50:15.044Z,11.83
2018-12-05T14:52:50.436Z,11.60
2018-12-05T14:55:25.257Z,10.63
2018-12-05T14:57:58.937Z,12.00
2018-12-05T15:00:43.459Z,12.23
2018-12-05T15:03:22.269Z,10.80
2018-12-05T15:05:57.096Z,10.53
2018-12-05T15:08:32.012Z,10.63
2018-12-05T15:11:05.703Z,21.53
2018-12-05T15:13:35.934Z,10.57
2018-12-05T15:19:09.406Z,10.30
2018-12-05T15:21:46.617Z,10.57
2018-12-05T15:24:18.989Z,11.33
2018-12-05T15:26:53.688Z,10.60
2018-12-05T15:29:28.543Z,10.40
2018-12-05T15:32:03.659Z,11.03
2018-12-05T15:34:38.131Z,13.53
2018-12-05T15:37:14.836Z,11.67
2018-12-05T15:39:50.697Z,10.30
2018-12-05T15:42:30.971Z,9.40
2018-12-05T15:45:10.619Z,10.23
2018-12-05T15:47:47.516Z,9.97
2018-12-05T15:50:18.479Z,9.87
2018-12-05T15:52:57.312Z,9.87
2018-12-05T15:55:39.145Z,10.40
2018-12-05T15:58:18.358Z,11.50
2018-12-05T16:00:51.311Z,9.87
2018-12-05T16:03:26.921Z,11.93
2018-12-05T16:06:05.582Z,12.10
2018-12-05T16:08:45.200Z,13.83
2018-12-05T16:11:26.359Z,11.17
2018-12-05T16:14:06.009Z,11.03
2018-12-05T16:16:44.383Z,10.40
2018-12-05T16:19:19.243Z,12.97
2018-12-05T16:21:57.305Z,11.80
2018-12-05T16:24:33.341Z,10.50
2018-12-05T16:27:09.163Z,10.80
2018-12-05T16:29:54.075Z,10.70
2018-12-05T16:32:30.159Z,10.73
2018-12-05T16:35:06.014Z,10.67
2018-12-05T16:37:41.241Z,11.30
2018-12-05T16:40:21.840Z,10.77
2018-12-05T16:42:56.186Z,11.47
2018-12-05T16:45:31.961Z,12.03
2018-12-05T16:48:06.094Z,11.33
2018-12-05T16:50:42.050Z,12.00
2018-12-05T16:53:20.106Z,11.47
2018-12-05T16:56:02.234Z,11.63
2018-12-05T16:58:36.481Z,11.30
2018-12-05T17:01:09.634Z,10.37
2018-12-05T17:03:44.807Z,10.30
2018-12-05T17:06:20.324Z,10.03
2018-12-05T17:08:56.170Z,12.03
2018-12-05T17:11:33.229Z,11.57
2018-12-05T17:14:15.411Z,11.70
2018-12-05T17:16:49.957Z,11.83
2018-12-05T17:19:19.161Z,10.37
2018-12-05T17:24:41.110Z,11.40
2018-12-05T17:27:14.612Z,11.47
2018-12-05T17:29:53.020Z,12.10
2018-12-05T17:32:38.383Z,11.83
2018-12-05T17:37:59.569Z,11.53
2018-12-05T17:40:41.387Z,12.47
2018-12-05T17:43:14.971Z,12.10
2018-12-05T17:48:52.464Z,12.67
2018-12-05T17:51:21.812Z,12.00
2018-12-05T17:53:56.844Z,12.07
2018-12-05T17:56:31.207Z,11.90
2018-12-05T17:59:12.344Z,12.60
2018-12-05T18:01:55.267Z,13.23
2018-12-05T18:04:38.819Z,12.97
2018-12-05T18:07:24.847Z,11.63
2018-12-05T18:12:59.684Z,12.03
2018-12-05T18:15:34.083Z,13.20
2018-12-05T18:18:13.814Z,12.70
2018-12-05T18:20:52.756Z,12.97
2018-12-05T18:23:33.946Z,12.27
2018-12-05T18:26:08.706Z,12.80
2018-12-05T18:28:43.445Z,13.17
2018-12-05T18:31:19.592Z,12.83
2018-12-05T18:33:48.974Z,13.50
2018-12-05T18:36:22.048Z,13.10
2018-12-05T18:38:57.100Z,13.37
2018-12-05T18:41:32.432Z,13.07
2018-12-05T18:44:07.487Z,14.47
2018-12-05T18:46:43.788Z,13.50
2018-12-05T18:49:13.733Z,12.70
2018-12-05T18:51:48.246Z,13.80
2018-12-05T18:54:27.373Z,12.77
2018-12-05T18:57:09.351Z,13.17
2018-12-05T18:59:39.882Z,13.10
2018-12-05T19:05:09.435Z,13.47
2018-12-05T19:07:44.527Z,13.10
2018-12-05T19:10:31.125Z,15.43
2018-12-05T19:13:13.368Z,12.67
2018-12-05T19:18:36.034Z,15.47
2018-12-05T19:21:11.991Z,13.20
2018-12-05T19:23:41.164Z,13.40
2018-12-05T19:26:16.144Z,13.70
2018-12-05T19:28:51.462Z,15.03
2018-12-05T19:31:20.787Z,14.87
2018-12-05T19:33:53.927Z,16.13
2018-12-05T19:36:33.434Z,14.73
2018-12-05T19:39:07.492Z,13.87
2018-12-05T19:41:47.983Z,13.73
2018-12-05T19:44:22.785Z,13.73
2018-12-05T19:47:03.932Z,13.00
2018-12-05T19:49:36.226Z,13.47
2018-12-05T19:52:05.321Z,12.27
2018-12-05T19:54:48.226Z,11.77
2018-12-05T19:57:28.054Z,12.27
2018-12-05T20:00:03.307Z,12.33
2018-12-05T20:02:38.047Z,12.90
2018-12-05T20:05:18.396Z,13.00
2018-12-05T20:07:48.811Z,12.40
2018-12-05T20:10:21.415Z,12.37
2018-12-05T20:13:00.092Z,12.43
2018-12-05T20:15:32.607Z,11.07
2018-12-05T20:18:07.032Z,11.23
2018-12-05T20:20:43.979Z,10.80
2018-12-05T20:26:24.910Z,11.07
2018-12-05T20:28:55.655Z,11.43
2018-12-05T20:31:32.512Z,12.33
2018-12-05T20:34:08.542Z,12.70
2018-12-05T20:36:37.655Z,12.40
2018-12-05T20:39:09.632Z,11.80
2018-12-05T20:41:44.727Z,13.70
2018-12-05T20:44:13.960Z,12.67
2018-12-05T20:49:45.742Z,13.50
2018-12-05T20:52:14.963Z,13.30
2018-12-05T20:54:44.954Z,12.70
2018-12-05T20:57:22.932Z,15.03
2018-12-05T20:59:54.984Z,14.53
2018-12-05T21:02:27.584Z,13.17
2018-12-05T21:05:10.594Z,13.70
2018-12-05T21:07:43.288Z,12.20
2018-12-05T21:10:16.033Z,13.33
2018-12-05T21:12:47.161Z,13.93
2018-12-05T21:15:22.214Z,13.50
2018-12-05T21:17:51.287Z,13.37
2018-12-05T21:20:33.008Z,12.80
2018-12-05T21:23:09.456Z,13.17
2018-12-05T21:25:40.643Z,13.13
2018-12-05T21:28:15.435Z,13.57
2018-12-05T21:31:00.769Z,12.90
2018-12-05T21:33:31.635Z,13.90
2018-12-05T21:36:04.773Z,12.70
2018-12-05T21:38:37.768Z,13.47
2018-12-05T21:41:14.763Z,13.27
2018-12-05T21:44:04.098Z,13.10
2018-12-05T21:46:39.145Z,12.13
2018-12-05T21:49:08.242Z,13.13
2018-12-05T21:51:37.320Z,13.67
2018-12-05T21:54:11.524Z,12.87
2018-12-05T21:56:40.659Z,12.83
2018-12-05T21:59:13.035Z,13.27
2018-12-05T22:01:47.889Z,13.17
2018-12-05T22:04:21.981Z,13.60
2018-12-05T22:06:57.209Z,13.37
2018-12-05T22:09:31.053Z,12.63
2018-12-05T22:15:11.377Z,13.10
2018-12-05T22:17:45.743Z,13.00
2018-12-05T22:20:18.187Z,13.10
2018-12-05T22:22:52.158Z,12.87
2018-12-05T22:25:24.703Z,11.77
2018-12-05T22:28:00.011Z,12.57
2018-12-05T22:30:35.012Z,12.93
2018-12-05T22:36:30.363Z,12.67
2018-12-05T22:39:00.858Z,12.50
2018-12-05T22:41:42.083Z,12.00
2018-12-05T22:44:24.784Z,12.37
2018-12-05T22:47:02.057Z,13.63
2018-12-05T22:49:31.077Z,13.00
2018-12-05T22:52:03.305Z,12.80
2018-12-05T22:54:44.010Z,12.63
2018-12-05T22:57:16.449Z,12.50
2018-12-05T22:59:51.428Z,13.60
2018-12-05T23:02:20.256Z,13.17
2018-12-05T23:04:50.626Z,13.10
2018-12-05T23:07:25.160Z,12.90
2018-12-05T23:12:58.570Z,13.70
2018-12-05T23:15:27.284Z,12.47
2018-12-05T23:17:56.391Z,12.87
2018-12-05T23:20:29.752Z,13.00
2018-12-05T23:23:02.311Z,12.60
2018-12-05T23:25:32.152Z,12.27
2018-12-05T23:28:00.901Z,12.40
2018-12-05T23:30:34.510Z,13.23
2018-12-05T23:33:09.996Z,12.60
2018-12-05T23:35:54.809Z,11.90
2018-12-05T23:38:23.879Z,11.87
2018-12-05T23:40:55.768Z,10.93
2018-12-05T23:43:25.380Z,10.73
2018-12-05T23:46:10.542Z,10.93
2018-12-05T23:48:45.947Z,10.90
2018-12-05T23:51:29.183Z,11.13
2018-12-05T23:54:10.726Z,12.37
2018-12-05T23:56:45.780Z,11.70
2018-12-05T23:59:26.550Z,11.27
